Millenium Air

Millenium Air Since 1998



 METAR AND TAF INFORMATION
METAR FOR WADL
ADDS - METARS form results

(0616 UTC 13 May 2021)
Data provider http://aviationweather.gov/metar/data/
 
METAR text: WADL 130600Z 11008KT 060V160 8000 SCT016 32/22 Q1008 NOSIG
Conditions at: WADL (BANDARA , ID) observed 0600 UTC 13 May 2021
Temperature: 32.0°C (90°F)
Dewpoint: 22.0°C (72°F) [RH = 56%]
Pressure (altimeter): 29.76 inches Hg (1008.0 mb)
Winds: from the ESE (110 degrees) at 9 MPH (8 knots; 4.1 m/s)
Visibility: 5 miles ( 8 km)
Ceiling: at least 12,000 feet AGL
Clouds: scattered clouds at 1600 feet AGL
Weather: no significant weather observed at this time

METAR text: WADL 130530Z 10007KT 330V130 8000 SCT016 32/22 Q1008 NOSIG
Conditions at: WADL (BANDARA , ID) observed 0530 UTC 13 May 2021
Temperature: 32.0°C (90°F)
Dewpoint: 22.0°C (72°F) [RH = 56%]
Pressure (altimeter): 29.76 inches Hg (1008.0 mb)
Winds: from the E (100 degrees) at 8 MPH (7 knots; 3.6 m/s)
Visibility: 5 miles ( 8 km)
Ceiling: at least 12,000 feet AGL
Clouds: scattered clouds at 1600 feet AGL
Weather: no significant weather observed at this time

Forecast for: WADL (BANDARA , ID)
Text: TAF WADL 130500Z 1306/1406 15010KT 8000 SCT016
Forecast period: 0600 UTC 13 May 2021 to 0600 UTC 14 May 2021
Forecast type: FROM: standard forecast or significant change
Winds: from the SSE (150 degrees) at 12 MPH (10 knots; 5.1 m/s)
Visibility: 5 miles (8 km)
Ceiling: at least 12,000 feet AGL
Clouds: scattered clouds at 1600 feet AGL
Weather: no significant weather forecast for this period

 AIRPORT MAP

 RUNWAY INFORMATION
Runway 13 Runway length 9000 ft Runway width 0 ft
Runway elevation 0 ft Runway displaced threshold 0 ft Runway heading 0
Runway 31 Runway length 9000 ft Runway width 0 ft
Runway elevation 0 ft Runway displaced threshold 0 ft Runway heading 0

 AIRPORT FREQUENCIES

 AIRPORT NEAR NAVIGATION AIDS